Time;durP1;ratioP1;P1;durP2;ratioP2;P2;SDS_P1;SDS_P2;PMS_P1;PMS_P2;Temp;Humidity;BMP_temperature;BMP_pressure;BME280_temperature;BME280_humidity;BME280_pressure;Samples;Min_cycle;Max_cycle;Signal;HPM_P1;HPM_P2
2023/12/08 00:00:17;;;;;;;2.80;2.00;;;;;;;;;;5040718;28;20152;-57
2023/12/08 00:02:43;;;;;;;2.75;2.13;;;;;;;;;;5032899;28;20063;-57
2023/12/08 00:05:09;;;;;;;3.65;2.10;;;;;;;;;;5067888;28;20041;-56
2023/12/08 00:07:34;;;;;;;3.25;2.13;;;;;;;;;;5049219;28;20044;-56
2023/12/08 00:10:00;;;;;;;3.15;2.28;;;;;;;;;;5032906;28;20028;-56
2023/12/08 00:12:25;;;;;;;2.40;1.90;;;;;;;;;;5049108;28;20033;-57
2023/12/08 00:14:50;;;;;;;3.22;2.33;;;;;;;;;;5067743;28;20044;-57
2023/12/08 00:17:16;;;;;;;3.30;2.30;;;;;;;;;;5066932;28;20040;-55
2023/12/08 00:19:41;;;;;;;3.15;2.10;;;;;;;;;;5049603;28;20499;-57
2023/12/08 00:22:07;;;;;;;2.90;1.90;;;;;;;;;;5067232;28;20089;-58
2023/12/08 00:24:33;;;;;;;2.60;1.92;;;;;;;;;;5067172;28;20131;-57
2023/12/08 00:26:58;;;;;;;2.90;2.08;;;;;;;;;;5067255;28;20047;-57
2023/12/08 00:29:24;;;;;;;3.20;1.98;;;;;;;;;;5066668;28;20040;-57
2023/12/08 00:31:49;;;;;;;3.20;2.03;;;;;;;;;;5067126;28;20072;-57
2023/12/08 00:34:15;;;;;;;2.40;2.10;;;;;;;;;;5066915;28;20111;-57
2023/12/08 00:36:41;;;;;;;3.10;2.10;;;;;;;;;;5068570;28;20455;-56
2023/12/08 00:39:07;;;;;;;2.47;1.80;;;;;;;;;;5067753;28;20028;-57
2023/12/08 00:41:32;;;;;;;3.05;1.95;;;;;;;;;;5067266;28;20124;-57
2023/12/08 00:43:58;;;;;;;3.30;2.00;;;;;;;;;;5041832;28;20115;-56
2023/12/08 00:46:23;;;;;;;2.65;1.95;;;;;;;;;;5067045;28;20302;-56
2023/12/08 00:48:48;;;;;;;3.38;2.08;;;;;;;;;;5066483;28;20025;-57
2023/12/08 00:51:14;;;;;;;2.78;1.90;;;;;;;;;;5066385;28;20111;-57
2023/12/08 00:53:40;;;;;;;3.17;2.22;;;;;;;;;;5066657;28;20037;-57
2023/12/08 00:56:05;;;;;;;2.92;2.10;;;;;;;;;;5067091;28;21403;-57
2023/12/08 00:58:31;;;;;;;4.20;2.10;;;;;;;;;;5040959;28;20041;-57
2023/12/08 01:00:56;;;;;;;2.80;2.08;;;;;;;;;;5065920;28;20039;-57
2023/12/08 01:03:21;;;;;;;2.97;2.10;;;;;;;;;;5059894;28;20036;-58
2023/12/08 01:05:47;;;;;;;3.03;2.25;;;;;;;;;;5047745;28;20088;-56
2023/12/08 01:08:12;;;;;;;3.20;2.13;;;;;;;;;;5057741;28;20055;-56
2023/12/08 01:10:37;;;;;;;3.33;2.30;;;;;;;;;;5064271;28;20044;-57
2023/12/08 01:13:02;;;;;;;2.90;2.22;;;;;;;;;;5064799;28;20036;-57
2023/12/08 01:15:28;;;;;;;3.35;1.80;;;;;;;;;;5065605;28;20450;-57
2023/12/08 01:17:53;;;;;;;2.38;1.85;;;;;;;;;;5065922;28;20371;-58
2023/12/08 01:20:18;;;;;;;2.53;1.92;;;;;;;;;;5066796;28;20044;-57
2023/12/08 01:22:44;;;;;;;2.90;2.10;;;;;;;;;;5065854;28;20082;-59
2023/12/08 01:25:09;;;;;;;2.70;2.22;;;;;;;;;;5064735;28;20035;-56
2023/12/08 01:27:34;;;;;;;3.15;2.20;;;;;;;;;;5065926;28;20040;-57
2023/12/08 01:30:00;;;;;;;3.60;2.28;;;;;;;;;;5066735;28;20110;-56
2023/12/08 01:32:25;;;;;;;3.40;2.38;;;;;;;;;;5065825;28;20036;-56
2023/12/08 01:34:50;;;;;;;3.22;2.10;;;;;;;;;;5065782;28;20391;-56
2023/12/08 01:37:15;;;;;;;3.28;2.20;;;;;;;;;;5066565;28;20032;-56
2023/12/08 01:39:41;;;;;;;2.80;2.30;;;;;;;;;;5040074;28;20028;-56
2023/12/08 01:42:06;;;;;;;2.90;2.05;;;;;;;;;;5065098;28;20041;-56
2023/12/08 01:44:31;;;;;;;3.00;2.10;;;;;;;;;;5065041;28;20166;-56
2023/12/08 01:46:57;;;;;;;2.95;2.22;;;;;;;;;;5065533;28;20131;-55
2023/12/08 01:49:22;;;;;;;2.90;2.17;;;;;;;;;;5047870;28;20090;-56
2023/12/08 01:51:47;;;;;;;2.53;1.92;;;;;;;;;;5047409;28;20033;-59
2023/12/08 01:54:12;;;;;;;3.00;2.20;;;;;;;;;;5047393;28;20040;-56
2023/12/08 01:56:38;;;;;;;2.53;2.00;;;;;;;;;;5065950;28;20041;-56
2023/12/08 01:59:03;;;;;;;3.22;2.40;;;;;;;;;;5064603;28;20047;-56
2023/12/08 02:01:28;;;;;;;2.70;1.90;;;;;;;;;;5065569;28;20113;-56
2023/12/08 02:03:54;;;;;;;3.20;2.25;;;;;;;;;;5065504;28;20318;-56
2023/12/08 02:06:19;;;;;;;2.97;2.20;;;;;;;;;;5065616;28;20200;-56
2023/12/08 02:08:46;;;;;;;2.42;1.98;;;;;;;;;;5065103;28;20423;-56
2023/12/08 02:11:12;;;;;;;2.97;2.15;;;;;;;;;;5065563;28;20066;-56
2023/12/08 02:13:37;;;;;;;3.13;2.40;;;;;;;;;;5065373;28;20036;-56
2023/12/08 02:16:38;;;;;;;2.83;2.00;;;;;;;;;;5058727;28;20091;-56
2023/12/08 02:19:03;;;;;;;3.10;2.10;;;;;;;;;;5017020;28;20037;-56
2023/12/08 02:21:29;;;;;;;2.88;2.08;;;;;;;;;;5032212;28;20406;-56
2023/12/08 02:23:54;;;;;;;3.13;2.25;;;;;;;;;;5046566;28;20036;-56
2023/12/08 02:26:19;;;;;;;2.70;2.08;;;;;;;;;;5065607;28;20153;-56
2023/12/08 02:28:45;;;;;;;2.38;2.08;;;;;;;;;;5046486;28;20045;-56
2023/12/08 02:31:10;;;;;;;2.85;2.10;;;;;;;;;;5065527;28;20104;-56
2023/12/08 02:33:36;;;;;;;3.25;2.25;;;;;;;;;;5063550;28;20029;-56
2023/12/08 02:36:01;;;;;;;2.90;1.98;;;;;;;;;;5047388;28;20359;-56
2023/12/08 02:38:26;;;;;;;2.75;2.25;;;;;;;;;;5064002;28;20377;-56
2023/12/08 02:40:52;;;;;;;3.08;2.00;;;;;;;;;;5065919;28;20569;-56
2023/12/08 02:43:17;;;;;;;2.63;2.00;;;;;;;;;;5065113;28;20131;-56
2023/12/08 02:45:42;;;;;;;3.10;2.22;;;;;;;;;;5064839;28;20052;-56
2023/12/08 02:48:08;;;;;;;2.85;2.05;;;;;;;;;;5064930;28;20033;-55
2023/12/08 02:50:33;;;;;;;3.20;2.17;;;;;;;;;;5046288;28;20048;-55
2023/12/08 02:52:58;;;;;;;2.88;2.28;;;;;;;;;;5065229;28;20105;-56
2023/12/08 02:55:24;;;;;;;2.95;2.13;;;;;;;;;;5064558;28;20041;-56
2023/12/08 02:57:49;;;;;;;2.67;2.17;;;;;;;;;;5064022;28;20378;-56
2023/12/08 03:00:14;;;;;;;3.30;2.33;;;;;;;;;;5064893;28;20044;-56
2023/12/08 03:02:39;;;;;;;3.00;2.08;;;;;;;;;;5064333;28;20044;-56
2023/12/08 03:05:05;;;;;;;2.78;2.00;;;;;;;;;;5064370;28;20495;-55
2023/12/08 03:07:30;;;;;;;2.85;2.28;;;;;;;;;;5064099;28;20040;-55
2023/12/08 03:09:56;;;;;;;3.50;2.38;;;;;;;;;;5065779;28;20055;-55
2023/12/08 03:12:21;;;;;;;2.42;1.88;;;;;;;;;;5065723;28;20560;-55
2023/12/08 03:14:46;;;;;;;2.58;2.05;;;;;;;;;;5064540;28;20063;-56
2023/12/08 03:17:11;;;;;;;2.90;2.33;;;;;;;;;;5047135;28;20089;-55
2023/12/08 03:19:37;;;;;;;3.25;2.55;;;;;;;;;;5064858;28;20037;-55
2023/12/08 03:22:02;;;;;;;3.00;2.10;;;;;;;;;;5065075;28;20033;-54
2023/12/08 03:24:27;;;;;;;3.15;2.33;;;;;;;;;;5054922;28;20067;-56
2023/12/08 03:26:53;;;;;;;3.10;2.28;;;;;;;;;;5065120;28;20053;-56
2023/12/08 03:29:18;;;;;;;2.58;2.17;;;;;;;;;;5066289;28;20425;-55
2023/12/08 03:31:43;;;;;;;2.63;2.13;;;;;;;;;;5065108;28;20064;-55
2023/12/08 03:34:09;;;;;;;2.60;2.20;;;;;;;;;;5064418;28;20047;-55
2023/12/08 03:36:34;;;;;;;2.97;2.28;;;;;;;;;;5068221;28;20067;-56
2023/12/08 03:38:59;;;;;;;3.30;2.45;;;;;;;;;;5069028;28;20036;-58
2023/12/08 03:41:25;;;;;;;3.03;2.35;;;;;;;;;;5068156;28;20091;-55
2023/12/08 03:43:50;;;;;;;2.78;2.10;;;;;;;;;;5068039;28;20028;-56
2023/12/08 03:46:16;;;;;;;3.10;2.28;;;;;;;;;;5050337;28;20056;-58
2023/12/08 03:48:41;;;;;;;2.90;2.03;;;;;;;;;;5067751;28;20024;-56
2023/12/08 03:51:06;;;;;;;3.05;2.35;;;;;;;;;;5068432;28;20111;-55
2023/12/08 03:53:32;;;;;;;3.13;2.17;;;;;;;;;;5067407;28;20047;-55
2023/12/08 03:55:57;;;;;;;2.78;2.33;;;;;;;;;;5067604;28;20036;-55
2023/12/08 03:58:22;;;;;;;3.17;2.53;;;;;;;;;;5067569;28;20052;-55
2023/12/08 04:00:48;;;;;;;3.08;2.22;;;;;;;;;;5067965;28;20481;-55
2023/12/08 04:03:13;;;;;;;2.90;2.28;;;;;;;;;;5067314;28;20028;-55
2023/12/08 04:05:38;;;;;;;2.47;1.88;;;;;;;;;;5066431;28;20044;-55
2023/12/08 04:08:04;;;;;;;2.78;2.03;;;;;;;;;;5049261;28;20207;-54
2023/12/08 04:10:30;;;;;;;2.40;1.95;;;;;;;;;;5065100;28;20044;-56
2023/12/08 04:12:55;;;;;;;3.10;2.05;;;;;;;;;;5049715;28;20407;-56
2023/12/08 04:15:20;;;;;;;2.30;1.73;;;;;;;;;;5066787;28;20440;-56
2023/12/08 04:17:46;;;;;;;2.97;2.30;;;;;;;;;;5067584;28;20051;-56
2023/12/08 04:20:11;;;;;;;2.70;2.03;;;;;;;;;;5067975;28;20028;-56
2023/12/08 04:22:36;;;;;;;3.17;2.03;;;;;;;;;;5067061;28;20102;-55
2023/12/08 04:25:02;;;;;;;2.53;1.92;;;;;;;;;;5067763;28;20067;-56
2023/12/08 04:27:27;;;;;;;2.67;2.00;;;;;;;;;;5066870;28;20091;-55
2023/12/08 04:29:52;;;;;;;2.65;1.80;;;;;;;;;;5067922;28;20553;-54
2023/12/08 04:32:18;;;;;;;2.63;2.20;;;;;;;;;;5064454;28;20080;-55
2023/12/08 04:34:43;;;;;;;2.75;2.00;;;;;;;;;;5066562;28;20097;-55
2023/12/08 04:37:08;;;;;;;2.60;2.20;;;;;;;;;;5065932;28;20044;-56
2023/12/08 04:39:34;;;;;;;2.33;1.75;;;;;;;;;;5067163;28;20552;-55
2023/12/08 04:41:59;;;;;;;2.70;2.00;;;;;;;;;;5067264;28;20036;-56
2023/12/08 04:44:25;;;;;;;3.20;2.00;;;;;;;;;;5048627;28;20119;-56
2023/12/08 04:46:50;;;;;;;2.63;2.05;;;;;;;;;;5065309;28;20430;-54
2023/12/08 04:49:15;;;;;;;2.28;1.80;;;;;;;;;;5066509;28;20035;-56
2023/12/08 04:51:41;;;;;;;2.53;1.95;;;;;;;;;;5066412;28;20043;-56
2023/12/08 04:54:06;;;;;;;2.88;2.08;;;;;;;;;;5065784;28;20412;-56
2023/12/08 04:56:32;;;;;;;2.90;2.00;;;;;;;;;;5065956;28;20036;-55
2023/12/08 04:58:57;;;;;;;2.75;2.00;;;;;;;;;;5066938;28;20473;-55
2023/12/08 05:01:22;;;;;;;2.60;1.95;;;;;;;;;;5066000;28;20191;-56
2023/12/08 05:03:47;;;;;;;2.50;1.77;;;;;;;;;;5066298;28;20051;-56
2023/12/08 05:06:13;;;;;;;3.30;1.90;;;;;;;;;;5065870;28;20132;-55
2023/12/08 05:08:38;;;;;;;3.10;2.08;;;;;;;;;;5066503;28;20036;-55
2023/12/08 05:11:04;;;;;;;2.70;2.10;;;;;;;;;;5067189;28;20040;-56
2023/12/08 05:13:29;;;;;;;2.63;1.85;;;;;;;;;;5065905;28;20055;-56
2023/12/08 05:15:55;;;;;;;2.25;1.70;;;;;;;;;;5066330;28;20045;-56
2023/12/08 05:18:20;;;;;;;3.50;1.92;;;;;;;;;;5066200;28;20074;-57
2023/12/08 05:20:45;;;;;;;2.28;1.80;;;;;;;;;;5066499;28;20499;-56
2023/12/08 05:23:11;;;;;;;2.65;2.10;;;;;;;;;;5065467;28;20064;-57
2023/12/08 05:25:36;;;;;;;2.92;2.00;;;;;;;;;;5066593;28;20053;-55
2023/12/08 05:28:02;;;;;;;2.40;1.80;;;;;;;;;;5065543;28;20028;-57
2023/12/08 05:30:27;;;;;;;2.42;1.80;;;;;;;;;;5065754;28;20037;-57
2023/12/08 05:32:53;;;;;;;2.38;1.80;;;;;;;;;;5065964;28;20067;-57
2023/12/08 05:35:18;;;;;;;2.50;1.92;;;;;;;;;;5066338;28;20497;-57
2023/12/08 05:37:44;;;;;;;3.00;2.00;;;;;;;;;;5065989;28;20036;-57
2023/12/08 05:40:09;;;;;;;2.75;1.88;;;;;;;;;;5065764;28;20047;-56
2023/12/08 05:42:34;;;;;;;2.47;1.90;;;;;;;;;;5063883;28;20047;-56
2023/12/08 05:45:00;;;;;;;2.75;2.10;;;;;;;;;;5060038;28;20112;-57
2023/12/08 05:47:25;;;;;;;2.85;2.03;;;;;;;;;;5066456;28;20055;-56
2023/12/08 05:49:50;;;;;;;2.90;1.90;;;;;;;;;;5069240;28;20419;-55
2023/12/08 05:52:15;;;;;;;2.90;1.90;;;;;;;;;;5065523;28;20032;-57
2023/12/08 05:54:41;;;;;;;2.78;2.10;;;;;;;;;;5066447;28;20043;-57
2023/12/08 05:57:07;;;;;;;2.95;2.20;;;;;;;;;;5064541;28;20089;-57
2023/12/08 05:59:32;;;;;;;2.33;1.70;;;;;;;;;;5064341;28;20048;-57
2023/12/08 06:01:57;;;;;;;2.40;1.90;;;;;;;;;;5061558;28;20037;-57
2023/12/08 06:04:23;;;;;;;2.83;2.00;;;;;;;;;;5055199;28;20037;-56
2023/12/08 06:06:48;;;;;;;2.58;2.15;;;;;;;;;;5062652;28;20088;-57
2023/12/08 06:09:13;;;;;;;2.67;1.98;;;;;;;;;;5064865;28;20595;-57
2023/12/08 06:11:39;;;;;;;3.30;2.00;;;;;;;;;;5056533;28;20050;-57
2023/12/08 06:14:06;;;;;;;2.60;1.95;;;;;;;;;;5064299;28;20032;-57
2023/12/08 06:16:31;;;;;;;2.78;2.13;;;;;;;;;;5064355;28;20060;-57
2023/12/08 06:18:57;;;;;;;2.50;1.85;;;;;;;;;;5062796;28;20563;-56
2023/12/08 06:21:22;;;;;;;2.88;1.98;;;;;;;;;;5065069;28;20510;-56
2023/12/08 06:23:47;;;;;;;3.00;2.20;;;;;;;;;;5064402;28;20037;-57
2023/12/08 06:26:13;;;;;;;2.53;1.98;;;;;;;;;;5051108;28;20049;-57
2023/12/08 06:28:38;;;;;;;2.63;2.00;;;;;;;;;;5027773;28;20585;-56
2023/12/08 06:31:03;;;;;;;2.42;1.83;;;;;;;;;;5044398;28;20482;-56
2023/12/08 06:33:29;;;;;;;3.00;2.15;;;;;;;;;;5058164;28;20066;-56
2023/12/08 06:35:54;;;;;;;2.90;2.13;;;;;;;;;;5050989;28;21723;-57
2023/12/08 06:38:19;;;;;;;2.72;2.00;;;;;;;;;;5050371;28;20499;-57
2023/12/08 06:40:45;;;;;;;2.75;2.17;;;;;;;;;;5050071;28;20068;-57
2023/12/08 06:43:10;;;;;;;2.35;1.80;;;;;;;;;;5049535;28;20036;-56
2023/12/08 06:45:35;;;;;;;3.10;2.03;;;;;;;;;;5051225;28;20459;-57
2023/12/08 06:48:00;;;;;;;2.63;1.98;;;;;;;;;;5050696;28;20037;-56
2023/12/08 06:50:26;;;;;;;2.55;1.80;;;;;;;;;;5047904;28;20037;-56
2023/12/08 06:52:51;;;;;;;2.60;1.90;;;;;;;;;;5015812;28;96882;-56
2023/12/08 06:55:19;;;;;;;2.20;1.70;;;;;;;;;;5006889;28;20037;-56
2023/12/08 06:57:44;;;;;;;3.22;2.30;;;;;;;;;;5018035;28;20029;-62
2023/12/08 07:00:10;;;;;;;2.90;2.10;;;;;;;;;;5018271;28;20064;-61
2023/12/08 07:02:38;;;;;;;2.85;2.17;;;;;;;;;;5016286;28;20099;-62
2023/12/08 07:05:03;;;;;;;2.90;1.83;;;;;;;;;;5016611;28;20037;-61
2023/12/08 07:07:29;;;;;;;2.20;1.70;;;;;;;;;;5017485;28;20160;-61
2023/12/08 07:09:54;;;;;;;2.45;1.70;;;;;;;;;;5021506;28;20033;-61
2023/12/08 07:12:19;;;;;;;3.22;1.75;;;;;;;;;;5023568;28;20550;-61
2023/12/08 07:14:45;;;;;;;3.03;1.92;;;;;;;;;;5024545;28;20125;-61
2023/12/08 07:17:10;;;;;;;3.55;1.83;;;;;;;;;;5024504;28;20034;-61
2023/12/08 07:19:37;;;;;;;2.70;2.10;;;;;;;;;;5023736;28;20415;-61
2023/12/08 07:22:02;;;;;;;3.05;1.75;;;;;;;;;;5023358;28;20036;-61
2023/12/08 07:24:28;;;;;;;3.47;2.28;;;;;;;;;;5022697;28;20033;-61
2023/12/08 07:26:54;;;;;;;2.72;2.10;;;;;;;;;;5024642;28;20053;-61
2023/12/08 07:29:21;;;;;;;2.72;1.90;;;;;;;;;;5023768;28;20040;-61
2023/12/08 07:31:46;;;;;;;3.33;2.08;;;;;;;;;;5023951;28;20103;-61
2023/12/08 07:34:12;;;;;;;3.42;1.88;;;;;;;;;;5023673;28;20034;-61
2023/12/08 07:36:37;;;;;;;2.83;2.00;;;;;;;;;;5022078;28;20037;-62
2023/12/08 07:39:03;;;;;;;2.80;1.92;;;;;;;;;;5023134;28;20183;-61
2023/12/08 07:41:28;;;;;;;2.60;1.73;;;;;;;;;;5024350;28;20131;-61
2023/12/08 07:43:54;;;;;;;1.98;1.58;;;;;;;;;;5022643;28;20077;-60
2023/12/08 07:46:21;;;;;;;2.00;1.50;;;;;;;;;;5022302;28;20064;-61
2023/12/08 07:48:47;;;;;;;3.55;1.77;;;;;;;;;;5023675;28;20098;-61
2023/12/08 07:51:12;;;;;;;3.45;1.80;;;;;;;;;;5023212;28;20097;-60
2023/12/08 07:53:37;;;;;;;3.50;1.90;;;;;;;;;;5022811;28;20064;-61
2023/12/08 07:56:03;;;;;;;2.53;1.80;;;;;;;;;;5022900;28;20041;-61
2023/12/08 07:58:28;;;;;;;2.97;1.85;;;;;;;;;;5023655;28;20530;-62
2023/12/08 08:00:53;;;;;;;3.17;1.88;;;;;;;;;;5024031;28;20139;-61
2023/12/08 08:03:18;;;;;;;3.20;2.03;;;;;;;;;;5020237;28;20048;-61
2023/12/08 08:05:44;;;;;;;3.13;2.05;;;;;;;;;;5022298;28;20087;-60
2023/12/08 08:08:09;;;;;;;3.03;1.85;;;;;;;;;;5022370;28;20671;-61
2023/12/08 08:10:34;;;;;;;2.80;1.95;;;;;;;;;;5022502;28;20447;-60
2023/12/08 08:13:01;;;;;;;2.75;1.67;;;;;;;;;;5021594;28;20048;-61
2023/12/08 08:15:26;;;;;;;2.75;1.85;;;;;;;;;;5020677;28;20534;-61
2023/12/08 08:17:52;;;;;;;2.83;1.67;;;;;;;;;;5001012;28;20178;-69
2023/12/08 08:20:17;;;;;;;2.90;1.80;;;;;;;;;;5005903;28;20057;-61
2023/12/08 08:22:42;;;;;;;2.35;1.70;;;;;;;;;;5001400;28;20055;-62
2023/12/08 08:25:08;;;;;;;2.60;1.80;;;;;;;;;;5001780;28;20142;-61
2023/12/08 08:27:33;;;;;;;2.28;1.67;;;;;;;;;;4981290;28;20402;-61
2023/12/08 08:29:59;;;;;;;2.25;1.67;;;;;;;;;;5001154;28;20049;-61
2023/12/08 08:32:24;;;;;;;3.30;1.80;;;;;;;;;;5001453;28;20136;-63
2023/12/08 08:34:50;;;;;;;3.30;2.22;;;;;;;;;;5002949;28;20546;-62
2023/12/08 08:37:16;;;;;;;3.53;1.90;;;;;;;;;;5001489;28;20049;-59
2023/12/08 08:39:41;;;;;;;2.92;2.05;;;;;;;;;;5016082;28;20690;-62
2023/12/08 08:42:07;;;;;;;2.53;1.73;;;;;;;;;;4978748;28;20048;-60
2023/12/08 08:44:32;;;;;;;3.58;2.20;;;;;;;;;;5001294;28;20423;-60
2023/12/08 08:46:58;;;;;;;2.88;1.90;;;;;;;;;;5000964;28;20038;-60
2023/12/08 08:49:23;;;;;;;3.97;1.95;;;;;;;;;;5019290;28;20083;-59
2023/12/08 08:51:49;;;;;;;3.90;2.00;;;;;;;;;;5003494;28;20164;-59
2023/12/08 08:54:14;;;;;;;3.00;1.70;;;;;;;;;;5001427;28;20068;-59
2023/12/08 08:56:40;;;;;;;3.33;1.50;;;;;;;;;;5020679;28;20033;-59
2023/12/08 08:59:05;;;;;;;3.95;1.92;;;;;;;;;;5000133;28;20131;-60
2023/12/08 09:01:30;;;;;;;2.78;1.77;;;;;;;;;;4997212;28;20082;-59
2023/12/08 09:03:56;;;;;;;3.22;1.70;;;;;;;;;;5018981;28;20072;-60
2023/12/08 09:06:21;;;;;;;2.80;1.80;;;;;;;;;;5001707;28;20041;-59
2023/12/08 09:08:47;;;;;;;3.67;1.70;;;;;;;;;;5001235;28;20072;-59
2023/12/08 09:11:12;;;;;;;2.80;1.70;;;;;;;;;;5018077;28;20030;-59
2023/12/08 09:13:37;;;;;;;3.58;1.83;;;;;;;;;;5001198;28;20598;-59
2023/12/08 09:16:04;;;;;;;2.53;1.83;;;;;;;;;;5000869;28;20037;-60
2023/12/08 09:18:29;;;;;;;3.35;1.80;;;;;;;;;;5016364;28;20079;-59
2023/12/08 09:20:54;;;;;;;2.70;1.70;;;;;;;;;;5018619;28;20069;-59
2023/12/08 09:23:20;;;;;;;2.75;1.60;;;;;;;;;;5019382;28;20419;-60
2023/12/08 09:25:45;;;;;;;2.40;1.58;;;;;;;;;;5000797;28;20064;-60
2023/12/08 09:28:11;;;;;;;3.47;2.00;;;;;;;;;;5001107;28;20037;-60
2023/12/08 09:30:36;;;;;;;2.95;1.80;;;;;;;;;;4994754;28;20051;-60
2023/12/08 09:33:02;;;;;;;2.60;1.88;;;;;;;;;;4999971;28;20479;-60
2023/12/08 09:35:28;;;;;;;3.08;1.80;;;;;;;;;;5019106;28;20046;-59
2023/12/08 09:37:53;;;;;;;2.72;2.00;;;;;;;;;;5018124;28;20029;-59
2023/12/08 09:40:18;;;;;;;2.60;1.80;;;;;;;;;;4979148;28;20045;-61
2023/12/08 09:42:48;;;;;;;3.42;1.90;;;;;;;;;;4980909;28;20053;-62
2023/12/08 09:45:14;;;;;;;3.22;2.08;;;;;;;;;;5019728;28;20030;-64
2023/12/08 09:47:39;;;;;;;2.58;1.80;;;;;;;;;;5000963;28;20530;-63
2023/12/08 09:50:09;;;;;;;2.80;1.88;;;;;;;;;;5019310;28;20041;-63
2023/12/08 09:52:34;;;;;;;2.00;1.60;;;;;;;;;;5019109;28;20033;-63
2023/12/08 09:55:00;;;;;;;2.90;1.83;;;;;;;;;;5019025;28;20040;-63
2023/12/08 09:57:26;;;;;;;3.10;1.70;;;;;;;;;;5020585;28;20033;-63
2023/12/08 09:59:51;;;;;;;2.92;1.83;;;;;;;;;;5019508;28;20041;-63
2023/12/08 10:02:18;;;;;;;4.10;1.75;;;;;;;;;;5020064;28;20124;-63
2023/12/08 10:04:43;;;;;;;3.72;1.70;;;;;;;;;;4995908;28;20055;-63
2023/12/08 10:07:09;;;;;;;2.58;1.58;;;;;;;;;;4997250;28;20128;-62
2023/12/08 10:09:34;;;;;;;2.83;1.70;;;;;;;;;;5001069;28;20045;-62
2023/12/08 10:11:59;;;;;;;3.55;1.90;;;;;;;;;;5000238;28;20040;-63
2023/12/08 10:14:25;;;;;;;2.55;1.70;;;;;;;;;;5019517;28;20034;-65
2023/12/08 10:16:50;;;;;;;2.78;1.75;;;;;;;;;;5001367;28;20129;-64
2023/12/08 10:19:18;;;;;;;3.03;1.50;;;;;;;;;;5019847;28;20033;-63
2023/12/08 10:21:43;;;;;;;3.63;2.20;;;;;;;;;;4994543;28;20033;-62
2023/12/08 10:24:09;;;;;;;2.53;1.80;;;;;;;;;;5018338;28;20056;-61
2023/12/08 10:26:34;;;;;;;2.85;1.75;;;;;;;;;;5018440;28;20049;-61
2023/12/08 10:29:00;;;;;;;2.63;1.77;;;;;;;;;;5018952;28;20510;-62
2023/12/08 10:31:26;;;;;;;3.13;1.83;;;;;;;;;;5000534;28;20726;-62
2023/12/08 10:33:51;;;;;;;2.50;1.80;;;;;;;;;;5000068;28;20038;-62
2023/12/08 10:36:17;;;;;;;2.78;1.65;;;;;;;;;;5019004;28;20038;-62
2023/12/08 10:38:42;;;;;;;2.90;2.10;;;;;;;;;;5016293;28;20419;-61
2023/12/08 10:41:10;;;;;;;2.90;1.90;;;;;;;;;;5016915;28;20126;-61
2023/12/08 10:43:39;;;;;;;2.60;1.80;;;;;;;;;;5018016;28;20029;-62
2023/12/08 10:46:04;;;;;;;3.25;2.00;;;;;;;;;;5017646;28;20068;-61
2023/12/08 10:48:30;;;;;;;4.38;2.38;;;;;;;;;;5018565;28;20053;-61
2023/12/08 10:50:56;;;;;;;2.95;1.98;;;;;;;;;;4999415;28;20042;-62
2023/12/08 10:53:22;;;;;;;3.58;2.20;;;;;;;;;;5019710;28;20050;-61
2023/12/08 10:56:06;;;;;;;2.58;1.50;;;;;;;;;;5020485;28;20144;-61
2023/12/08 10:58:32;;;;;;;3.13;1.98;;;;;;;;;;5017771;28;20068;-60
2023/12/08 11:00:57;;;;;;;2.97;2.25;;;;;;;;;;5016938;28;20061;-60
2023/12/08 11:03:23;;;;;;;3.17;1.90;;;;;;;;;;4999490;28;20033;-58
2023/12/08 11:05:59;;;;;;;3.78;1.92;;;;;;;;;;4999732;28;20099;-58
2023/12/08 11:08:24;;;;;;;3.15;2.10;;;;;;;;;;5021676;28;20049;-60
2023/12/08 11:10:52;;;;;;;3.40;1.80;;;;;;;;;;5007304;28;20414;-59
2023/12/08 11:13:29;;;;;;;3.78;2.17;;;;;;;;;;5008285;28;20018;-60
2023/12/08 11:16:01;;;;;;;4.65;2.30;;;;;;;;;;5025469;28;20033;-60
2023/12/08 11:18:35;;;;;;;3.03;2.00;;;;;;;;;;5025499;28;20460;-59
2023/12/08 11:21:02;;;;;;;2.63;2.22;;;;;;;;;;5007932;28;20121;-59
2023/12/08 11:23:27;;;;;;;3.00;2.05;;;;;;;;;;5007273;28;20041;-59
2023/12/08 11:26:16;;;;;;;4.90;2.10;;;;;;;;;;5007718;28;20053;-59
2023/12/08 11:28:59;;;;;;;3.50;2.08;;;;;;;;;;5008843;28;20048;-60
2023/12/08 11:31:43;;;;;;;3.45;2.25;;;;;;;;;;5004199;28;20042;-60
2023/12/08 11:34:13;;;;;;;3.88;2.05;;;;;;;;;;5024413;28;20041;-60
2023/12/08 11:36:47;;;;;;;3.88;2.40;;;;;;;;;;5006456;28;20044;-59
2023/12/08 11:39:33;;;;;;;3.88;2.22;;;;;;;;;;5025563;28;20033;-59
2023/12/08 11:41:58;;;;;;;3.15;2.15;;;;;;;;;;5011041;28;20037;-60
2023/12/08 11:44:24;;;;;;;3.40;2.30;;;;;;;;;;5037783;28;20551;-60
2023/12/08 11:46:54;;;;;;;3.47;2.17;;;;;;;;;;5007523;28;20398;-59
2023/12/08 11:49:19;;;;;;;3.28;2.20;;;;;;;;;;5025836;28;20038;-59
2023/12/08 11:52:03;;;;;;;4.05;2.20;;;;;;;;;;5025021;28;20049;-60
2023/12/08 11:54:29;;;;;;;4.35;2.58;;;;;;;;;;5023485;28;20230;-59
2023/12/08 11:56:54;;;;;;;4.28;2.30;;;;;;;;;;5027002;28;20107;-61
2023/12/08 11:59:21;;;;;;;3.13;2.15;;;;;;;;;;5029257;28;20352;-60
2023/12/08 12:01:47;;;;;;;3.28;2.13;;;;;;;;;;5029136;28;20298;-60
2023/12/08 12:04:12;;;;;;;3.92;2.67;;;;;;;;;;5029188;28;20021;-59
2023/12/08 12:06:37;;;;;;;3.67;2.40;;;;;;;;;;5028467;28;20033;-60
2023/12/08 12:09:04;;;;;;;3.05;2.25;;;;;;;;;;5028544;28;20025;-59
2023/12/08 12:11:31;;;;;;;3.00;1.90;;;;;;;;;;5022714;28;20062;-59
2023/12/08 12:13:56;;;;;;;4.28;2.17;;;;;;;;;;5021524;28;20549;-59
2023/12/08 12:16:21;;;;;;;2.92;2.00;;;;;;;;;;5043493;28;20033;-60
2023/12/08 12:18:46;;;;;;;4.38;2.20;;;;;;;;;;5023145;28;20045;-59
2023/12/08 12:21:14;;;;;;;3.75;2.30;;;;;;;;;;5028336;28;20021;-59
2023/12/08 12:23:39;;;;;;;3.65;2.20;;;;;;;;;;5010984;28;20049;-60
2023/12/08 12:26:10;;;;;;;4.45;2.25;;;;;;;;;;5027943;28;20052;-59
2023/12/08 12:28:35;;;;;;;3.90;2.22;;;;;;;;;;5025432;28;20609;-60
2023/12/08 12:31:00;;;;;;;4.50;2.45;;;;;;;;;;5028673;28;20034;-60
2023/12/08 12:33:26;;;;;;;3.65;2.20;;;;;;;;;;5027997;28;20029;-60
2023/12/08 12:35:51;;;;;;;2.78;2.15;;;;;;;;;;5028378;28;20057;-60
2023/12/08 12:38:19;;;;;;;3.63;2.03;;;;;;;;;;5025119;28;20447;-59
2023/12/08 12:40:45;;;;;;;2.88;2.00;;;;;;;;;;5027579;28;20046;-60
2023/12/08 12:43:15;;;;;;;3.80;2.40;;;;;;;;;;5028208;28;20106;-59
2023/12/08 12:45:40;;;;;;;;;;;;;;;;;;5001938;28;20099;-60
2023/12/08 12:48:07;;;;;;;3.78;2.33;;;;;;;;;;5025799;28;20403;-60
2023/12/08 12:50:52;;;;;;;3.38;2.33;;;;;;;;;;5024858;28;20175;-58
2023/12/08 12:53:18;;;;;;;3.03;2.13;;;;;;;;;;5024868;28;20518;-59
2023/12/08 12:55:43;;;;;;;3.47;2.20;;;;;;;;;;5025673;28;20101;-59
2023/12/08 12:58:21;;;;;;;4.00;2.15;;;;;;;;;;5021660;28;20041;-59
2023/12/08 13:00:47;;;;;;;4.13;2.38;;;;;;;;;;5027153;28;20041;-59
2023/12/08 13:03:13;;;;;;;3.20;2.20;;;;;;;;;;5025348;28;20534;-60
2023/12/08 13:05:48;;;;;;;3.60;2.45;;;;;;;;;;5008662;28;20056;-60
2023/12/08 13:08:14;;;;;;;3.55;2.38;;;;;;;;;;5024502;28;20068;-59
2023/12/08 13:10:39;;;;;;;3.22;2.20;;;;;;;;;;5009379;28;20037;-60
2023/12/08 13:13:04;;;;;;;2.90;2.38;;;;;;;;;;5026660;28;20037;-60
2023/12/08 13:15:29;;;;;;;3.63;2.67;;;;;;;;;;5027377;28;20081;-58
2023/12/08 13:17:55;;;;;;;3.65;2.35;;;;;;;;;;5027466;28;20431;-60
2023/12/08 13:20:20;;;;;;;3.88;2.35;;;;;;;;;;5020187;28;20042;-60
2023/12/08 13:22:45;;;;;;;3.55;2.20;;;;;;;;;;5027005;28;20049;-60
2023/12/08 13:25:11;;;;;;;3.63;2.40;;;;;;;;;;5027629;28;20037;-60
2023/12/08 13:27:36;;;;;;;4.30;2.42;;;;;;;;;;5026682;28;20144;-59
2023/12/08 13:30:02;;;;;;;3.92;2.50;;;;;;;;;;5024571;28;20116;-60
2023/12/08 13:32:27;;;;;;;3.47;2.55;;;;;;;;;;5022106;28;20037;-60
2023/12/08 13:34:54;;;;;;;3.30;2.10;;;;;;;;;;5026949;28;20120;-60
2023/12/08 13:37:20;;;;;;;4.53;2.40;;;;;;;;;;5023132;28;20042;-60
2023/12/08 13:39:45;;;;;;;3.30;2.22;;;;;;;;;;5039983;28;20036;-60
2023/12/08 13:42:10;;;;;;;4.18;2.30;;;;;;;;;;5025449;28;20102;-60
2023/12/08 13:44:36;;;;;;;3.13;2.22;;;;;;;;;;5027029;28;20048;-59
2023/12/08 13:47:01;;;;;;;4.15;2.20;;;;;;;;;;5025839;28;20073;-60
2023/12/08 13:49:26;;;;;;;4.30;2.45;;;;;;;;;;5027177;28;20454;-59
2023/12/08 13:51:51;;;;;;;3.53;2.40;;;;;;;;;;5026204;28;21117;-61
2023/12/08 13:54:17;;;;;;;3.13;2.17;;;;;;;;;;5024475;28;20037;-60
2023/12/08 13:56:42;;;;;;;5.32;2.20;;;;;;;;;;5026028;28;20041;-60
2023/12/08 13:59:07;;;;;;;4.72;2.50;;;;;;;;;;5026096;28;20029;-60
2023/12/08 14:01:33;;;;;;;2.75;2.20;;;;;;;;;;5007778;28;20524;-61
2023/12/08 14:03:58;;;;;;;2.85;2.22;;;;;;;;;;5026641;28;20546;-61
2023/12/08 14:06:23;;;;;;;4.22;2.50;;;;;;;;;;5024532;28;20088;-60
2023/12/08 14:08:51;;;;;;;3.88;2.65;;;;;;;;;;5026938;28;20037;-59
2023/12/08 14:11:17;;;;;;;3.22;2.33;;;;;;;;;;5025794;28;20180;-60
2023/12/08 14:13:43;;;;;;;3.40;2.30;;;;;;;;;;5026641;28;20125;-60
2023/12/08 14:16:08;;;;;;;3.60;2.72;;;;;;;;;;5026215;28;20032;-60
2023/12/08 14:18:34;;;;;;;3.50;2.40;;;;;;;;;;5025604;28;20068;-60
2023/12/08 14:21:00;;;;;;;4.03;2.40;;;;;;;;;;5026566;28;20025;-60
2023/12/08 14:23:25;;;;;;;3.25;2.28;;;;;;;;;;5026245;28;20045;-60
2023/12/08 14:25:50;;;;;;;4.03;2.40;;;;;;;;;;5006000;28;20050;-60
2023/12/08 14:28:16;;;;;;;2.80;2.17;;;;;;;;;;5024140;28;20053;-60
2023/12/08 14:30:41;;;;;;;3.28;2.33;;;;;;;;;;5026403;28;20467;-60
2023/12/08 14:33:06;;;;;;;4.75;2.63;;;;;;;;;;5025612;28;20137;-61
2023/12/08 14:35:32;;;;;;;3.15;2.33;;;;;;;;;;5026274;28;20030;-60